Северо-западная Россия

РегЦ Санкт-Петербург

Региональный Центр Единой Системы Организации Воздушного Движения (РегЦ ЕС ОрВД) Санкт-Петербург является структурным подразделением VATRUS.

В зону ответственности центра в сети VATSIM входит воздушное пространство над территориями Ленинградской, Новгородской, Псковской, Вологодской области, Мурманской, Архангельской областями, а так же Республики Карелия и Коми, Ненецкого АО.

Лого Северо-западная Россия
Контакты

FSS региона
Обозначение
RU-NWC_FSS
Позывной
Северо-Запад Контроль
Частота
135.620
Примечание
Top-down
Инструкторы региона
Akhmadjon Saidov (Instructor)
Alexandr Vaganov (Instructor)
Alexey Kaznakov (Instructor)
Dmitry Bugaychuk (Instructor)
Ekaterina Romanova (Instructor)
Maxim Demidov * (Controller)
Nikita Assorov (Instructor)
Stanley Yorke * (Controller)
Yury Koryagin (Instructor)
Включает в себя

РПИ Калининград
РПИ Санкт-Петербург

Диспетчеры региона

Диспетчер Рейтинг Допуски *
Akhmadjon Saidov Instructor ULLL_CTR
Aleksandr Manko Controller ULLL_CTR
Alexandr Vaganov Instructor ULLL_CTR
Alexey Dobronravov Instructor UMKK_CTR
Alexey Zimin Senior Controller ULLL_CTR
Dmitry Bugaychuk Instructor ULLL_CTR , UMKK_CTR
Ekaterina Romanova Instructor ULLL_CTR , UMKK_CTR
Maxim Demidov Controller ULLL_CTR
Mihail Kolesnik Controller ULLL_CTR
Nikita Assorov Instructor UMKK_CTR
Oleg Alov Senior Student ULLL_CTR  *, ULMM_R_APP!!!, ULLL_2_APP, ULLL_1_APP, ULLL_APP
Serafim Bedershtet Controller ULLL_CTR
Stanley Yorke Controller ULLL_CTR , UMKK_CTR
Vadim Drachev Controller ULLL_CTR
Yan Stetsenko Controller ULLL_CTR
Pavel Gavrilov Senior Student ULLL_2_APP, ULLL_1_APP, ULLL_APP, UMKK_APP
Akmal Idrissov Senior Student ULLL_2_APP, ULLL_1_APP, ULLL_APP
Aleksandr Mirtov Student ULLI_GND
Alexandr Sosnovsky Senior Student ULAA_APP, ULLL_2_APP, ULLL_1_APP, ULLL_APP
Andrey Tarasov Student 2 ULLI_3_TWR, ULLI_2_TWR, ULLI_1_TWR, ULLI_TWR
Andrey Volanskiy Student 2 ULLI_3_TWR, ULLI_2_TWR, ULLI_1_TWR, ULLI_TWR
Arseny Sitnikov Student 2 ULLI_3_TWR, ULLI_2_TWR, ULLI_1_TWR, ULLI_TWR
Artem Badalov Senior Student ULLL_2_APP, ULLL_1_APP, ULLL_APP
Artem Makarov Student ULLI_GND, ULLI_3_TWR*, ULLI_2_TWR*, ULLI_1_TWR*, ULLI_TWR*
Daniil Kayruk Student 2 ULLI_3_TWR, ULLI_2_TWR, ULLI_1_TWR, ULLI_TWR
David Markarian Student 2 ULLI_3_TWR, ULLI_2_TWR, ULLI_1_TWR, ULLI_TWR
Dmitrii Ermakov Student 2 ULLI_2_TWR, ULLI_1_TWR, ULLI_TWR, ULLI_3_TWR
Dmitry Berezin Student ULLI_GND, ULLI_3_TWR*, ULLI_2_TWR*, ULLI_1_TWR*, ULLI_TWR*
Grigoriy Novikov Student ULLI_GND
Ilya Kulikov Student ULLI_GND
Ivan Chumakov Student 2 ULLI_3_TWR, ULLI_2_TWR, ULLI_1_TWR, ULLI_TWR
Johan Nasstrom Student 2 ULLI_3_TWR, ULLI_2_TWR, ULLI_1_TWR, ULLI_TWR
Mikhail Satsik Senior Student ULLL_2_APP, ULLL_1_APP, ULLL_APP
Nikita Ovsyannikov Student 2 ULLI_3_TWR, ULLI_2_TWR, ULLI_1_TWR, ULLI_TWR, UMKK_TWR
Nikita Voytko Senior Student ULLL_2_APP, ULLL_1_APP, ULLL_APP
Pavel Romanov Student ULLI_GND
Robert Farber Controller ULLL_2_APP, ULLL_1_APP, ULLL_APP
Sasha Klyucharev Student 2 ULLI_2_TWR, ULLI_1_TWR, ULLI_TWR, ULLI_3_TWR
Sofya Belyaeva Student 2 ULLI_3_TWR, ULLI_2_TWR, ULLI_1_TWR, ULLI_TWR
Viktor Ivanov Student ULLI_GND
Yakov Polushkin Student 2 ULLI_3_TWR, ULLI_2_TWR, ULLI_1_TWR, ULLI_TWR
Yury Pushkaryov Student 2 ULLI_3_TWR, ULLI_2_TWR, ULLI_1_TWR, ULLI_TWR, ULLI_R_APP*, ULAA_TWR

Аэропорты региона

ICAO Город Название Погода
ULLI Санкт-Петербург Пулково ULLI 100900Z 17003MPS 1800 1100E R10L/1900U BR OVC002 M06/M07 Q1015 R10L/520545 NOSIG RMK QBB060 OBST OBSC
ULAA Архангельск Архангельск ULAA 100900Z 11005MPS 070V130 9999 -SHSN BKN010CB M09/M11 Q1024 R08/490538 NOSIG RMK QFE767/1023
UMKK Калининград Калининград UMKK 100900Z 00000MPS 9999 BKN018 M05/M05 Q1011 R24/690195 TEMPO 0400 FZFG BKN002 RMK QFE757/1009
ULKK Котлас Котлас
XLLV Левашово Левашово
ULMM Мурманск Мурманск ULMM 100900Z 12002MPS CAVOK M10/M12 Q1026 R13/390049 NOSIG RMK QFE763
ULAM Нарьян-Мар Нарьян-Мар
ULPB Петрозаводск Бесовец ULPB 100900Z 00000MPS 4500 -SN SCT033 BKN045 M04/M05 Q1015 R19/490340 NOSIG RMK QFE758/1010
ULOO Псков Псков ULOO 100900Z VRB01MPS 4100 BR VV002 M08/M09 Q1014 R19/990433 NOSIG RMK QBB070 OBST OBSC QFE756
UUYY Сыктывкар Сыктывкар UUYY 100900Z 04005MPS 9999 FEW003 BKN016 M14/M16 Q1024 R36/490339 NOSIG RMK QBB100 QFE759/1012
ULWC Череповец Череповец ULWC 100900Z 11002MPS 7000 -SHSN BKN006 BKN015CB M06/M08 Q1015 R21/490331 NOSIG RMK QFE751/1002